Flight Track Log - Related Links

Times and Time Zones

All times are in EDT time to prevent confusion due to time zone crossing. See the JBU165 flight status page for this flight to view local times or setup timezone preferences in your user account.

Time Position Orientation Groundspeed Altitude Reporting Facility
EDT Latitude Longitude Course Direction KTS MPH feet Rate Location/Type
Tue 09:29:28 PM 40.6333 -73.8500 323° Northwest 189 217 1,900  Level New York TRACON
Tue 09:30:28 PM 40.5833 -73.8833 207° Southwest 283 326 3,800 2,474 Climbing New York TRACON
Tue 09:31:00 PM 40.9025 -73.9768 330° Northwest  Level FlightAware Approximate
Tue 09:31:22 PM 40.5500 -73.8167 123° Southeast 303 349 6,600  Level New York TRACON
Tue 09:32:00 PM 40.9998 -74.0498 330° Northwest  Level FlightAware Approximate
Tue 09:32:22 PM 40.6000 -73.7167 57° Northeast 302 348 9,000  Level New York TRACON
Tue 09:33:00 PM 41.0971 -74.1228 331° Northwest  Level FlightAware Approximate
Tue 09:33:22 PM 40.6333 -73.6167 66° East 331 381 10,800  Level New York TRACON
Tue 09:34:00 PM 41.1943 -74.1943 323° Northwest  Level FlightAware Approximate
Tue 09:34:28 PM 40.7333 -73.5167 37° Northeast 392 451 12,200  Level New York TRACON
Tue 09:35:22 PM 40.8000 -73.5500 339° North 367 422 14,000 1,852 Climbing New York TRACON
Tue 09:36:57 PM 40.9250 -73.7125 316° Northwest 377 434 16,800 1,161 Climbing New York Center
Tue 09:37:57 PM 40.9936 -73.8033 315° West 383 441 17,000 100 Climbing New York Center
Tue 09:38:57 PM 41.0761 -73.9117 315° West 383 441 17,000  Level New York Center
Tue 09:39:57 PM 41.1397 -74.0194 308° West 378 435 17,000  Level New York Center
Tue 09:40:57 PM 41.1969 -74.1350 303° West 378 435 17,000 650 Level New York Center
Tue 09:41:57 PM 41.2519 -74.2483 303° West 378 435 18,300 1,450 Climbing New York Center
Tue 09:42:57 PM 41.3031 -74.3531 303° West 373 429 19,900 1,450 Climbing New York Center
Tue 09:43:57 PM 41.3658 -74.4753 304° West 391 450 21,200 1,500 Climbing New York Center
Tue 09:44:57 PM 41.4244 -74.5975 303° West 396 456 22,900 1,400 Climbing New York Center
Tue 09:45:57 PM 41.4869 -74.7256 303° West 401 461 24,000 550 Climbing New York Center
Tue 09:46:57 PM 41.5472 -74.8483 303° West 406 467 24,000 600 Level New York Center
Tue 09:47:57 PM 41.6094 -74.9769 303° West 406 467 25,200 1,100 Climbing New York Center
Tue 09:48:57 PM 41.6714 -75.1058 303° West 406 467 26,200 1,000 Climbing New York Center
Tue 09:49:57 PM 41.7331 -75.2378 302° West 411 473 27,200 950 Climbing New York Center
Tue 09:50:57 PM 41.7986 -75.3756 303° West 423 487 28,100 1,100 Climbing New York Center
Tue 09:51:57 PM 41.8717 -75.5283 303° West 436 502 29,400 1,400 Climbing New York Center
Tue 09:52:57 PM 41.9350 -75.6611 303° West 436 502 30,900 1,200 Climbing New York Center
Tue 09:53:57 PM 41.9983 -75.7942 303° West 436 502 31,800 1,139 Climbing New York Center
Tue 09:55:35 PM 42.0833 -76.0000 299° West 410 472 33,900 835 Climbing Toronto Center
Tue 09:56:35 PM 42.1333 -76.1000 304° West 420 483 34,000  Climbing Toronto Center
Tue 09:57:15 PM 42.1836 -76.2197 300° West 410 472 33,900 -60 Descending Cleveland Center
Tue 09:58:15 PM 42.2308 -76.3650 294° West 416 479 33,900 50 Level Cleveland Center
Tue 09:59:15 PM 42.2803 -76.5192 293° West 411 473 34,000 50 Climbing Cleveland Center
Tue 10:00:15 PM 42.3247 -76.6650 292° West 411 473 34,000  Level Cleveland Center
Tue 10:01:15 PM 42.3714 -76.8083 294° West 411 473 34,000  Level Cleveland Center
Tue 10:02:15 PM 42.4156 -76.9519 293° West 411 473 34,000  Level Cleveland Center
Tue 10:03:15 PM 42.4619 -77.1014 293° West 416 479 34,000  Level Cleveland Center
Tue 10:04:15 PM 42.5078 -77.2453 293° West 416 479 34,000  Level Cleveland Center
Tue 10:05:15 PM 42.5456 -77.3956 289° West 421 484 34,000  Level Cleveland Center
Tue 10:06:15 PM 42.5783 -77.5350 288° West 428 493 34,000 -50 Level Cleveland Center
Tue 10:07:15 PM 42.6133 -77.6828 288° West 428 493 33,900  Descending Cleveland Center
Tue 10:08:15 PM 42.6486 -77.8364 287° West 423 487 34,000 50 Climbing Cleveland Center
Tue 10:09:15 PM 42.6853 -77.9817 289° West 417 480 34,000  Level Cleveland Center
Tue 10:10:15 PM 42.7197 -78.1272 288° West 417 480 34,000 -50 Level Cleveland Center
Tue 10:11:15 PM 42.7519 -78.2758 286° West 417 480 33,900  Descending Cleveland Center
Tue 10:12:15 PM 42.7861 -78.4219 288° West 417 480 34,000 50 Climbing Cleveland Center
Tue 10:13:15 PM 42.8200 -78.5736 287° West 417 480 34,000  Level Cleveland Center
Tue 10:14:15 PM 42.8558 -78.7225 288° West 417 480 34,000  Level Cleveland Center
Tue 10:15:15 PM 42.8894 -78.8744 287° West 417 480 34,000  Level Cleveland Center
Tue 10:16:15 PM 42.9250 -79.0294 287° West 417 480 34,000  Level Cleveland Center
Tue 10:17:35 PM 42.9667 -79.2500 285° West 430 495 34,000  Level Toronto Center
Tue 10:18:35 PM 43.0000 -79.3833 289° West 430 495 34,000  Level Toronto Center
Tue 10:19:35 PM 43.0333 -79.5500 285° West 430 495 34,000  Level Toronto Center
Tue 10:20:35 PM 43.0667 -79.7000 287° West 430 495 34,000  Level Toronto Center
Tue 10:21:35 PM 43.1000 -79.8667 285° West 430 495 34,000  Level Toronto Center
Tue 10:22:35 PM 43.1333 -80.0167 287° West 430 495 34,000  Level Toronto Center
Tue 10:23:35 PM 43.1667 -80.1833 285° West 430 495 34,000  Level Toronto Center
Tue 10:24:35 PM 43.2000 -80.3500 285° West 430 495 34,000  Level Toronto Center
Tue 10:25:35 PM 43.2333 -80.5000 287° West 420 483 34,000 -50 Level Toronto Center
Tue 10:26:35 PM 43.2667 -80.6333 289° West 420 483 33,900  Descending Toronto Center
Tue 10:27:35 PM 43.3000 -80.7833 287° West 420 483 34,000 50 Climbing Toronto Center
Tue 10:28:35 PM 43.3167 -80.9333 279° West 420 483 34,000  Level Toronto Center
Tue 10:29:35 PM 43.3500 -81.1000 285° West 420 483 34,000  Level Toronto Center
Tue 10:30:35 PM 43.3833 -81.2667 285° West 410 472 34,000  Level Toronto Center
Tue 10:31:35 PM 43.4167 -81.4000 289° West 410 472 34,000  Level Toronto Center
Tue 10:32:35 PM 43.4500 -81.5667 285° West 410 472 34,000  Level Toronto Center
Tue 10:33:35 PM 43.4833 -81.7167 287° West 410 472 34,000  Level Toronto Center
Tue 10:34:35 PM 43.5167 -81.8667 287° West 410 472 34,000  Level Toronto Center
Tue 10:35:35 PM 43.5333 -82.0333 278° West 420 483 34,000  Level Toronto Center
Tue 10:36:35 PM 43.5667 -82.1667 289° West 420 483 34,000  Level Toronto Center
Tue 10:37:15 PM 43.5939 -82.2742 289° West 412 474 34,000  Level Cleveland Center
Tue 10:38:15 PM 43.6250 -82.4269 286° West 417 480 34,000  Level Cleveland Center
Tue 10:38:55 PM 43.6408 -82.5214 283° West 413 475 34,000  Level Minneapolis Center
Tue 10:39:35 PM 43.6500 -82.6500 276° West 410 472 34,000  Level Toronto Center
Tue 10:40:35 PM 43.6833 -82.8000 287° West 410 472 34,000  Level Toronto Center
Tue 10:41:35 PM 43.7000 -82.9333 280° West 410 472 34,000  Level Toronto Center
Tue 10:42:35 PM 43.7333 -83.1000 286° West 410 472 34,000  Level Toronto Center
Tue 10:43:35 PM 43.7500 -83.2333 280° West 400 460 34,000  Level Toronto Center
Tue 10:44:35 PM 43.7833 -83.4000 286° West 390 449 34,000 -50 Level Toronto Center
Tue 10:45:35 PM 43.8167 -83.5167 292° West 390 449 33,900 -50 Descending Toronto Center
Tue 10:46:35 PM 43.8500 -83.6833 286° West 390 449 33,900  Level Toronto Center
Tue 10:47:35 PM 43.8667 -83.8167 280° West 390 449 33,900 67 Level Toronto Center
Tue 10:48:05 PM 43.8881 -83.8781 296° West 384 442 34,000 65 Climbing Minneapolis Center
Tue 10:49:07 PM 43.9131 -84.0233 283° West 387 445 34,000  Level Minneapolis Center
Tue 10:50:08 PM 43.9392 -84.1681 284° West 388 447 34,000  Level Minneapolis Center
Tue 10:51:21 PM 43.9694 -84.3425 284° West 389 448 34,000  Level Minneapolis Center
Tue 10:52:22 PM 43.9958 -84.5056 283° West 390 449 34,000  Level Minneapolis Center
Tue 10:53:24 PM 44.0206 -84.6506 283° West 388 447 34,000 -49 Level Minneapolis Center
Tue 10:54:25 PM 44.0458 -84.7956 284° West 387 445 33,900  Descending Minneapolis Center
Tue 10:55:26 PM 44.0700 -84.9417 283° West 388 447 34,000  Climbing Minneapolis Center
Tue 10:56:27 PM 44.0939 -85.0878 283° West 388 447 33,900 -49 Descending Minneapolis Center
Tue 10:57:28 PM 44.1181 -85.2336 283° West 388 447 33,900  Level Minneapolis Center
Tue 10:58:29 PM 44.1461 -85.4097 283° West 388 447 33,900 49 Level Minneapolis Center
Tue 10:59:30 PM 44.1692 -85.5567 282° West 387 445 34,000  Climbing Minneapolis Center
Tue 11:00:32 PM 44.1931 -85.7036 283° West 388 447 33,900 -49 Descending Minneapolis Center
Tue 11:01:33 PM 44.2164 -85.8497 283° West 387 445 33,900  Level Minneapolis Center
Tue 11:02:34 PM 44.2397 -85.9989 282° West 389 448 33,900  Level Minneapolis Center
Tue 11:03:35 PM 44.2628 -86.1517 282° West 396 456 33,900  Level Minneapolis Center
Tue 11:04:36 PM 44.2864 -86.3039 282° West 399 459 33,900 49 Level Minneapolis Center
Tue 11:05:37 PM 44.3083 -86.4567 281° West 399 459 34,000 49 Climbing Minneapolis Center
Tue 11:06:39 PM 44.3311 -86.6117 282° West 403 464 34,000  Level Minneapolis Center
Tue 11:07:40 PM 44.3533 -86.7636 282° West 401 461 34,000 -49 Level Minneapolis Center
Tue 11:08:41 PM 44.3775 -86.9181 282° West 404 465 33,900 -49 Descending Minneapolis Center
Tue 11:09:42 PM 44.4000 -87.0708 282° West 403 464 33,900  Level Minneapolis Center
Tue 11:10:43 PM 44.4214 -87.2239 281° West 402 463 33,900 49 Level Minneapolis Center
Tue 11:11:45 PM 44.4483 -87.4075 282° West 401 461 34,000 49 Climbing Minneapolis Center
Tue 11:12:46 PM 44.4692 -87.5628 281° West 406 467 34,000 -45 Level Minneapolis Center
Tue 11:13:59 PM 44.4950 -87.7444 281° West 400 460 33,900 -45 Descending Minneapolis Center
Tue 11:15:00 PM 44.5147 -87.8972 280° West 400 460 33,900  Level Minneapolis Center
Tue 11:16:01 PM 44.5361 -88.0475 281° West 396 456 33,900  Level Minneapolis Center
Tue 11:17:02 PM 44.5564 -88.2000 281° West 398 458 33,900 49 Level Minneapolis Center
Tue 11:18:03 PM 44.5786 -88.3692 281° West 399 459 34,000 49 Climbing Minneapolis Center
Tue 11:19:04 PM 44.5997 -88.5214 281° West 398 458 34,000  Level Minneapolis Center
Tue 11:20:05 PM 44.6211 -88.6750 281° West 401 461 34,000  Level Minneapolis Center
Tue 11:21:07 PM 44.6414 -88.8297 280° West 402 463 34,000  Level Minneapolis Center
Tue 11:22:08 PM 44.6614 -88.9817 281° West 397 457 34,000  Level Minneapolis Center
Tue 11:23:09 PM 44.6819 -89.1339 281° West 398 458 34,000  Level Minneapolis Center
Tue 11:24:10 PM 44.7022 -89.2872 281° West 397 457 34,000  Level Minneapolis Center
Tue 11:25:11 PM 44.7219 -89.4397 280° West 397 457 34,000  Level Minneapolis Center
Tue 11:26:12 PM 44.7414 -89.5936 280° West 399 459 34,000  Level Minneapolis Center
Tue 11:27:13 PM 44.7608 -89.7450 280° West 396 456 34,000  Level Minneapolis Center
Tue 11:28:14 PM 44.7797 -89.8997 280° West 400 460 34,000  Level Minneapolis Center
Tue 11:29:15 PM 44.7978 -90.0503 280° West 392 451 34,000  Level Minneapolis Center
Tue 11:30:16 PM 44.8172 -90.2025 280° West 394 453 34,000  Level Minneapolis Center
Tue 11:31:17 PM 44.8356 -90.3556 280° West 395 455 34,000  Level Minneapolis Center
Tue 11:32:18 PM 44.8533 -90.5058 280° West 391 450 34,000  Level Minneapolis Center
Tue 11:33:18 PM 44.8744 -90.6881 279° West 392 451 34,000  Level Minneapolis Center
Tue 11:34:19 PM 44.8925 -90.8411 280° West 395 455 34,000  Level Minneapolis Center
Tue 11:35:20 PM 44.9047 -90.9706 278° West 390 449 34,000  Level Minneapolis Center
Tue 11:36:21 PM 44.9225 -91.1228 279° West 390 449 34,000  Level Minneapolis Center
Tue 11:37:22 PM 44.9403 -91.2769 279° West 396 456 34,000  Level Minneapolis Center
Tue 11:38:23 PM 44.9572 -91.4300 279° West 397 457 34,000  Level Minneapolis Center
Tue 11:39:24 PM 44.9767 -91.6133 279° West 396 456 34,000  Level Minneapolis Center
Tue 11:40:24 PM 44.9964 -91.7697 280° West 403 464 34,000  Level Minneapolis Center
Tue 11:41:25 PM 45.0103 -91.9206 277° West 394 453 34,000  Level Minneapolis Center
Tue 11:42:26 PM 45.0264 -92.0756 278° West 396 456 34,000  Level Minneapolis Center
Tue 11:43:27 PM 45.0425 -92.2303 278° West 399 459 34,000  Level Minneapolis Center
Tue 11:44:27 PM 45.0589 -92.3867 278° West 404 465 34,000  Level Minneapolis Center
Tue 11:45:28 PM 45.0731 -92.5422 277° West 403 464 34,000  Level Minneapolis Center
Tue 11:46:29 PM 45.0878 -92.6986 278° West 404 465 34,000  Level Minneapolis Center
Tue 11:47:41 PM 45.1028 -92.8533 278° West 401 461 34,000  Level Minneapolis Center
Tue 11:48:42 PM 45.1186 -93.0419 277° West 405 466 34,000  Level Minneapolis Center
Tue 11:49:43 PM 45.1325 -93.1992 277° West 408 470 34,000  Level Minneapolis Center
Tue 11:50:43 PM 45.1464 -93.3564 277° West 407 468 34,000  Level Minneapolis Center
Tue 11:51:44 PM 45.1606 -93.5444 276° West 405 466 34,000  Level Minneapolis Center
Tue 11:52:45 PM 45.1728 -93.7014 276° West 404 465 34,000  Level Minneapolis Center
Tue 11:53:45 PM 45.1822 -93.8578 275° West 403 464 34,000  Level Minneapolis Center
Tue 11:54:46 PM 45.1936 -94.0147 276° West 403 464 34,000  Level Minneapolis Center
Tue 11:55:46 PM 45.2050 -94.1728 276° West 406 467 34,000  Level Minneapolis Center
Tue 11:56:47 PM 45.2158 -94.3325 276° West 407 468 34,000  Level Minneapolis Center
Tue 11:57:48 PM 45.2253 -94.4908 275° West 406 467 34,000  Level Minneapolis Center
Tue 11:58:48 PM 45.2378 -94.6639 276° West 410 472 34,000  Level Minneapolis Center
Tue 11:59:49 PM 45.2486 -94.8239 276° West 410 472 34,000  Level Minneapolis Center
Wed 12:00:49 AM 45.2592 -94.9842 275° West 410 472 34,000  Level Minneapolis Center
Wed 12:01:50 AM 45.2683 -95.1458 275° West 412 474 34,000  Level Minneapolis Center
Wed 12:02:50 AM 45.2778 -95.3081 275° West 415 478 34,000  Level Minneapolis Center
Wed 12:03:51 AM 45.2869 -95.4692 275° West 413 475 34,000  Level Minneapolis Center
Wed 12:04:51 AM 45.2969 -95.6306 275° West 412 474 34,000  Level Minneapolis Center
Wed 12:05:52 AM 45.3053 -95.7922 274° West 413 475 34,000  Level Minneapolis Center
Wed 12:06:52 AM 45.3147 -95.9514 275° West 409 471 34,000  Level Minneapolis Center
Wed 12:07:53 AM 45.3228 -96.1119 274° West 409 471 34,000  Level Minneapolis Center
Wed 12:08:53 AM 45.3303 -96.2706 274° West 407 468 34,000  Level Minneapolis Center
Wed 12:09:54 AM 45.3394 -96.4311 275° West 408 470 34,000  Level Minneapolis Center
Wed 12:10:54 AM 45.3472 -96.5900 274° West 407 468 34,000  Level Minneapolis Center
Wed 12:11:55 AM 45.3550 -96.7494 274° West 407 468 34,000  Level Minneapolis Center
Wed 12:12:55 AM 45.3614 -96.9114 273° West 412 474 34,000  Level Minneapolis Center
Wed 12:13:56 AM 45.3708 -97.1039 274° West 409 471 34,000  Level Minneapolis Center
Wed 12:14:56 AM 45.3778 -97.2667 274° West 413 475 34,000  Level Minneapolis Center
Wed 12:15:57 AM 45.3850 -97.4306 274° West 416 479 34,000  Level Minneapolis Center
Wed 12:16:57 AM 45.3911 -97.5931 273° West 414 476 34,000  Level Minneapolis Center
Wed 12:17:57 AM 45.3975 -97.7561 273° West 414 476 34,000  Level Minneapolis Center
Wed 12:18:58 AM 45.4036 -97.9189 273° West 414 476 34,000  Level Minneapolis Center
Wed 12:19:58 AM 45.4094 -98.0706 273° West 414 476 34,000  Level Minneapolis Center
Wed 12:20:59 AM 45.4147 -98.2333 273° West 414 476 34,000  Level Minneapolis Center
Wed 12:21:59 AM 45.4192 -98.3967 272° West 414 476 34,000  Level Minneapolis Center
Wed 12:22:59 AM 45.4342 -98.5600 278° West 416 479 34,000  Level Minneapolis Center
Wed 12:24:00 AM 45.4483 -98.7219 277° West 415 478 34,000  Level Minneapolis Center
Wed 12:25:00 AM 45.4614 -98.8842 277° West 414 476 34,000  Level Minneapolis Center
Wed 12:26:00 AM 45.4733 -99.0486 276° West 417 480 34,000  Level Minneapolis Center
Wed 12:27:01 AM 45.4867 -99.2119 277° West 418 481 34,000  Level Minneapolis Center
Wed 12:28:01 AM 45.4992 -99.3761 276° West 419 482 34,000  Level Minneapolis Center
Wed 12:29:01 AM 45.5108 -99.5397 276° West 419 482 34,000  Level Minneapolis Center
Wed 12:30:02 AM 45.5256 -99.7358 276° West 418 481 34,000  Level Minneapolis Center
Wed 12:31:02 AM 45.5372 -99.8992 276° West 418 481 34,000  Level Minneapolis Center
Wed 12:32:02 AM 45.5475 -100.0628 275° West 417 480 34,000  Level Minneapolis Center
Wed 12:33:03 AM 45.5592 -100.2264 276° West 418 481 34,000  Level Minneapolis Center
Wed 12:34:03 AM 45.5703 -100.3917 276° West 420 483 34,000  Level Minneapolis Center
Wed 12:35:03 AM 45.5814 -100.5589 275° West 424 488 34,000  Level Minneapolis Center
Wed 12:36:04 AM 45.5914 -100.7242 275° West 421 484 34,000  Level Minneapolis Center
Wed 12:37:04 AM 45.5994 -100.8894 274° West 420 483 34,000 400 Level Minneapolis Center
Wed 12:38:04 AM 45.6103 -101.0569 275° West 422 486 34,800 992 Climbing Minneapolis Center
Wed 12:39:05 AM 45.6214 -101.2206 276° West 420 483 36,000 595 Climbing Minneapolis Center
Wed 12:40:05 AM 45.6303 -101.3814 275° West 412 474 36,000  Level Minneapolis Center
Wed 12:41:05 AM 45.6408 -101.5422 275° West 409 471 36,000  Level Minneapolis Center
Wed 12:42:06 AM 45.6511 -101.7061 275° West 412 474 36,000  Level Minneapolis Center
Wed 12:43:06 AM 45.6583 -101.8692 274° West 413 475 36,000  Level Minneapolis Center
Wed 12:44:06 AM 45.6667 -102.0317 274° West 412 474 36,000  Level Minneapolis Center
Wed 12:45:07 AM 45.6758 -102.1953 275° West 413 475 36,000  Level Minneapolis Center
Wed 12:46:07 AM 45.6825 -102.3589 273° West 412 474 36,000  Level Minneapolis Center
Wed 12:47:07 AM 45.6903 -102.5228 274° West 414 476 36,000 -50 Level Minneapolis Center
Wed 12:48:08 AM 45.6978 -102.6747 274° West 415 478 35,900  Descending Minneapolis Center
Wed 12:49:08 AM 45.7053 -102.8397 274° West 416 479 36,000 50 Climbing Minneapolis Center
Wed 12:50:09 AM 45.7122 -103.0067 273° West 418 481 36,000 -50 Level Minneapolis Center
Wed 12:51:09 AM 45.7192 -103.1714 274° West 417 480 35,900 -50 Descending Minneapolis Center
Wed 12:52:09 AM 45.7258 -103.3378 273° West 418 481 35,900 50 Level Minneapolis Center
Wed 12:53:10 AM 45.7314 -103.5053 273° West 420 483 36,000 50 Climbing Minneapolis Center
Wed 12:54:10 AM 45.7378 -103.6747 273° West 425 489 36,000  Level Minneapolis Center
Wed 12:55:10 AM 45.7436 -103.8411 273° West 421 484 36,000  Level Minneapolis Center
Wed 12:56:11 AM 45.7494 -104.0094 273° West 423 487 36,000 -50 Level Minneapolis Center
Wed 12:57:11 AM 45.7556 -104.2100 273° West 422 486 35,900  Descending Minneapolis Center
Wed 12:58:11 AM 45.7611 -104.3775 273° West 422 486 36,000  Climbing Minneapolis Center
Wed 12:59:11 AM 45.7661 -104.5456 273° West 423 487 35,900  Descending Minneapolis Center
Wed 01:00:25 AM 45.7706 -104.7342 272° West 422 486 36,000 44 Climbing Salt Lake Center
Wed 01:01:26 AM 45.7747 -104.9028 272° West 422 486 36,000  Level Salt Lake Center
Wed 01:02:30 AM 45.7789 -105.0697 272° West 423 487 36,000  Level Salt Lake Center
Wed 01:03:27 AM 45.7825 -105.2400 272° West 427 491 36,000  Level Salt Lake Center
Wed 01:04:28 AM 45.7861 -105.4061 272° West 421 484 36,000  Level Salt Lake Center
Wed 01:05:28 AM 45.7906 -105.5742 272° West 423 487 36,000  Level Salt Lake Center
Wed 01:06:29 AM 45.7933 -105.7419 271° West 423 487 36,000  Level Salt Lake Center
Wed 01:07:30 AM 45.7950 -105.9397 271° West 418 481 36,000  Level Salt Lake Center
Wed 01:08:30 AM 45.7947 -106.1033 270° West 413 475 36,000  Level Salt Lake Center
Wed 01:09:31 AM 45.7975 -106.2719 271° West 421 484 36,000  Level Salt Lake Center
Wed 01:10:31 AM 45.8017 -106.4397 272° West 422 486 36,000  Level Salt Lake Center
Wed 01:11:32 AM 45.8042 -106.6064 271° West 422 486 36,000  Level Salt Lake Center
Wed 01:12:33 AM 45.8064 -106.7722 271° West 420 483 36,000  Level Salt Lake Center
Wed 01:13:33 AM 45.8083 -106.9394 271° West 422 486 36,000  Level Salt Lake Center
Wed 01:14:34 AM 45.8103 -107.1067 271° West 422 486 36,000  Level Salt Lake Center
Wed 01:15:34 AM 45.8103 -107.2739 270° West 424 488 36,000  Level Salt Lake Center
Wed 01:16:35 AM 45.8111 -107.4425 270° West 427 491 36,000  Level Salt Lake Center
Wed 01:17:36 AM 45.8117 -107.6119 270° West 430 495 36,000  Level Salt Lake Center
Wed 01:18:36 AM 45.8119 -107.7825 270° West 431 496 36,000  Level Salt Lake Center
Wed 01:19:37 AM 45.8125 -107.9531 270° West 432 497 36,000  Level Salt Lake Center
Wed 01:20:37 AM 45.8561 -108.1122 292° West 436 502 36,000  Level Salt Lake Center
Wed 01:21:38 AM 45.9169 -108.3006 295° West 436 502 36,000  Level Salt Lake Center
Wed 01:22:38 AM 45.9681 -108.4564 295° West 431 496 36,000  Level Salt Lake Center
Wed 01:23:39 AM 45.9878 -108.6267 280° West 432 497 36,000  Level Salt Lake Center
Wed 01:24:39 AM 45.9900 -108.7933 271° West 422 486 36,000  Level Salt Lake Center
Wed 01:25:40 AM 45.9914 -108.9586 271° West 416 479 36,000  Level Salt Lake Center
Wed 01:26:41 AM 45.9939 -109.1244 271° West 419 482 36,000  Level Salt Lake Center
Wed 01:27:41 AM 45.9953 -109.2931 271° West 424 488 36,000  Level Salt Lake Center
Wed 01:28:42 AM 45.9975 -109.4603 271° West 421 484 36,000  Level Salt Lake Center
Wed 01:29:42 AM 45.9994 -109.6269 271° West 420 483 36,000  Level Salt Lake Center
Wed 01:30:43 AM 45.9997 -109.7958 270° West 424 488 36,000  Level Salt Lake Center
Wed 01:31:43 AM 46.0008 -109.9633 271° West 423 487 36,000  Level Salt Lake Center
Wed 01:32:44 AM 46.0017 -110.1317 270° West 423 487 36,000  Level Salt Lake Center
Wed 01:33:44 AM 46.0028 -110.2978 271° West 418 481 36,000  Level Salt Lake Center
Wed 01:34:45 AM 46.0022 -110.4672 270° West 424 488 36,000  Level Salt Lake Center
Wed 01:35:45 AM 46.0028 -110.6364 270° West 426 490 36,000  Level Salt Lake Center
Wed 01:36:46 AM 46.0014 -110.8064 269° West 428 493 36,000  Level Salt Lake Center
Wed 01:37:46 AM 46.0014 -110.9792 270° West 424 488 36,000  Level Salt Lake Center
Wed 01:38:47 AM 46.0008 -111.1708 270° West 429 494 36,000  Level Salt Lake Center
Wed 01:39:47 AM 46.0003 -111.3358 270° West 431 496 36,000  Level Salt Lake Center
Wed 01:40:48 AM 45.9986 -111.4992 269° West 429 494 36,000  Level Salt Lake Center
Wed 01:41:48 AM 45.9975 -111.6900 270° West 429 494 36,000  Level Salt Lake Center
Wed 01:42:49 AM 45.9953 -111.8553 269° West 432 497 36,000  Level Salt Lake Center
Wed 01:43:49 AM 45.9928 -112.0192 269° West 431 496 36,000  Level Salt Lake Center
Wed 01:44:50 AM 45.9917 -112.2103 270° West 429 494 36,000  Level Salt Lake Center
Wed 01:45:50 AM 45.9883 -112.3728 268° West 428 493 36,000  Level Salt Lake Center
Wed 01:46:51 AM 45.9858 -112.5394 269° West 432 497 36,000  Level Salt Lake Center
Wed 01:47:51 AM 45.9825 -112.7317 269° West 433 498 36,000 -50 Level Salt Lake Center
Wed 01:48:52 AM 45.9808 -112.8767 269° West 433 498 35,900 -50 Descending Salt Lake Center
Wed 01:49:52 AM 45.9769 -113.0492 268° West 433 498 35,900 50 Level Salt Lake Center
Wed 01:50:53 AM 45.9731 -113.2225 268° West 435 501 36,000  Climbing Salt Lake Center
Wed 01:51:53 AM 45.9692 -113.3922 268° West 429 494 35,900 -50 Descending Salt Lake Center
Wed 01:52:54 AM 45.9653 -113.5950 268° West 425 489 35,900  Level Salt Lake Center
Wed 01:53:54 AM 45.9597 -113.7681 267° West 430 495 35,900  Level Salt Lake Center
Wed 01:54:55 AM 45.9550 -113.9414 268° West 432 497 35,900 50 Level Salt Lake Center
Wed 01:55:55 AM 45.9494 -114.1144 267° West 434 499 36,000 50 Climbing Salt Lake Center
Wed 01:56:56 AM 45.9442 -114.2894 268° West 436 502 36,000 -50 Level Salt Lake Center
Wed 01:57:56 AM 45.9383 -114.4642 267° West 437 503 35,900 -50 Descending Salt Lake Center
Wed 01:58:56 AM 45.9319 -114.6375 267° West 437 503 35,900 50 Level Salt Lake Center
Wed 01:59:57 AM 45.9256 -114.8092 267° West 433 498 36,000 50 Climbing Salt Lake Center
Wed 02:00:57 AM 45.9200 -114.9814 267° West 433 498 36,000 -50 Level Salt Lake Center
Wed 02:01:58 AM 45.9128 -115.1500 267° West 427 491 35,900 -50 Descending Salt Lake Center
Wed 02:02:58 AM 45.9064 -115.3097 267° West 430 495 35,900 50 Level Salt Lake Center
Wed 02:03:59 AM 45.8994 -115.4778 267° West 426 490 36,000 50 Climbing Salt Lake Center
Wed 02:04:59 AM 45.8897 -115.6469 265° West 426 490 36,000 -50 Level Salt Lake Center
Wed 02:05:59 AM 45.8803 -115.8158 265° West 425 489 35,900 -50 Descending Salt Lake Center
Wed 02:07:00 AM 45.8700 -115.9828 265° West 422 486 35,900 50 Level Salt Lake Center
Wed 02:08:00 AM 45.8606 -116.1503 265° West 421 484 36,000 50 Climbing Salt Lake Center
Wed 02:09:01 AM 45.8500 -116.3178 265° West 422 486 36,000 -50 Level Salt Lake Center
Wed 02:10:01 AM 45.8383 -116.4883 264° West 428 493 35,900 -50 Descending Salt Lake Center
Wed 02:11:01 AM 45.8275 -116.6569 265° West 426 490 35,900 50 Level Salt Lake Center
Wed 02:12:02 AM 45.8164 -116.8283 265° West 431 496 36,000 50 Climbing Salt Lake Center
Wed 02:13:02 AM 45.8047 -116.9975 264° West 428 493 36,000  Level Salt Lake Center
Wed 02:14:03 AM 45.7933 -117.1653 264° West 425 489 36,000  Level Salt Lake Center
Wed 02:15:03 AM 45.7806 -117.3308 264° West 420 483 36,000 -50 Level Salt Lake Center
Wed 02:16:03 AM 45.7692 -117.4978 264° West 420 483 35,900  Descending Salt Lake Center
Wed 02:17:28 AM 45.7514 -117.7319 264° West 422 486 36,000 41 Climbing Seattle Center
Wed 02:18:28 AM 45.7369 -117.9258 264° West 413 475 36,000  Level Seattle Center
Wed 02:19:29 AM 45.7244 -118.0883 264° West 412 474 36,000  Level Seattle Center
Wed 02:20:29 AM 45.7106 -118.2506 263° West 412 474 36,000  Level Seattle Center
Wed 02:21:29 AM 45.6986 -118.4175 264° West 418 481 36,000  Level Seattle Center
Wed 02:22:29 AM 45.6869 -118.5639 264° West 413 475 36,000  Level Seattle Center
Wed 02:23:30 AM 45.6731 -118.7250 263° West 411 473 36,000  Level Seattle Center
Wed 02:24:30 AM 45.6600 -118.8861 263° West 409 471 36,000  Level Seattle Center
Wed 02:25:30 AM 45.6456 -119.0461 263° West 408 470 36,000 -50 Level Seattle Center
Wed 02:26:31 AM 45.6317 -119.2039 263° West 405 466 35,900 -50 Descending Seattle Center
Wed 02:27:31 AM 45.6175 -119.3608 263° West 402 463 35,900 50 Level Seattle Center
Wed 02:28:31 AM 45.6031 -119.5214 263° West 407 468 36,000 -149 Climbing Seattle Center
Wed 02:29:32 AM 45.5875 -119.6853 262° West 415 478 35,600 -942 Descending Seattle Center
Wed 02:30:32 AM 45.5719 -119.8569 263° West 431 496 34,100 -1,850 Descending Seattle Center
Wed 02:31:32 AM 45.5553 -120.0275 262° West 437 503 31,900 -2,500 Descending Seattle Center
Wed 02:32:32 AM 45.5361 -120.2256 262° West 429 494 29,100 -2,479 Descending Seattle Center
Wed 02:33:33 AM 45.5203 -120.3883 262° West 421 484 26,900 -2,033 Descending Seattle Center
Wed 02:34:33 AM 45.5192 -120.5494 269° West 407 468 25,000 -2,050 Descending Seattle Center
Wed 02:35:33 AM 45.5219 -120.7058 272° West 398 458 22,800 -2,100 Descending Seattle Center
Wed 02:36:33 AM 45.5247 -120.8547 272° West 382 440 20,800 -1,934 Descending Seattle Center
Wed 02:37:34 AM 45.5267 -120.9989 271° West 368 423 18,900 -1,934 Descending Seattle Center
Wed 02:38:34 AM 45.5269 -121.1386 270° West 356 410 16,900 -1,950 Descending Seattle Center
Wed 02:39:34 AM 45.5275 -121.2761 270° West 348 400 15,000 -1,891 Descending Seattle Center
Wed 02:40:06 AM 45.5286 -121.3608 271° West 344 396 14,000 -1,806 Descending Seattle Center
Wed 02:41:07 AM 45.5300 -121.4903 271° West 329 379 12,200 -1,686 Descending Seattle Center
Wed 02:42:07 AM 45.5292 -121.6206 270° West 322 371 10,600 -1,190 Descending Seattle Center
Wed 02:43:08 AM 45.5294 -121.7350 270° West 285 328 9,800 -1,488 Descending Seattle Center
Wed 02:44:08 AM 45.5342 -121.8506 273° West 297 342 7,600 -1,537 Descending Seattle Center
Wed 02:45:09 AM 45.5386 -121.9661 273° West 296 341 6,700 -738 Descending Seattle Center
Wed 02:46:10 AM 45.5425 -122.0789 273° West 285 328 6,100 -744 Descending Seattle Center
Wed 02:47:10 AM 45.5386 -122.1978 267° West 270 311 5,200 -1,736 Descending Seattle Center
Wed 02:48:11 AM 45.5381 -122.3000 270° West 259 298 2,600 -1,574 Descending Seattle Center
Wed 02:49:12 AM 45.5367 -122.3900 269° West 210 242 2,000 -397 Descending Seattle Center
Wed 02:50:12 AM 45.5428 -122.4617 277° West 182 209 1,800 -545 Descending Seattle Center
Wed 02:51:13 AM 45.5622 -122.5153 297° West 142 163 900 -744 Descending Seattle Center
Wed 02:52:13 AM 45.5794 -122.5575 300° West 118 136 300 -600 Descending Seattle Center

Login

Don't have an account? Register now (free) for customized features, flight alerts, and more!